sensor_id;sensor_type;location;lat;lon;timestamp;pressure;altitude;pressure_sealevel;temperature;humidity
11339;BME280;5724;42.684;23.252;2022-10-30T00:00:36;95123.97;;;9.37;86.15
11339;BME280;5724;42.684;23.252;2022-10-30T00:03:01;95115.56;;;9.42;85.66
11339;BME280;5724;42.684;23.252;2022-10-30T00:05:27;95122.22;;;9.32;86.04
11339;BME280;5724;42.684;23.252;2022-10-30T00:07:55;95121.34;;;9.20;86.96
11339;BME280;5724;42.684;23.252;2022-10-30T00:10:21;95108.06;;;9.18;87.15
11339;BME280;5724;42.684;23.252;2022-10-30T00:12:47;95114.91;;;9.24;87.15
11339;BME280;5724;42.684;23.252;2022-10-30T00:15:13;95101.00;;;9.17;86.50
11339;BME280;5724;42.684;23.252;2022-10-30T00:17:38;95118.25;;;9.30;86.48
11339;BME280;5724;42.684;23.252;2022-10-30T00:20:05;95122.09;;;9.29;86.57
11339;BME280;5724;42.684;23.252;2022-10-30T00:22:31;95119.63;;;9.36;86.51
11339;BME280;5724;42.684;23.252;2022-10-30T00:24:56;95121.56;;;9.35;86.40
11339;BME280;5724;42.684;23.252;2022-10-30T00:27:21;95126.59;;;9.25;86.69
11339;BME280;5724;42.684;23.252;2022-10-30T00:29:47;95124.16;;;9.32;86.56
11339;BME280;5724;42.684;23.252;2022-10-30T00:32:12;95119.16;;;9.34;86.27
11339;BME280;5724;42.684;23.252;2022-10-30T00:34:38;95117.16;;;9.22;88.25
11339;BME280;5724;42.684;23.252;2022-10-30T00:37:03;95116.13;;;9.06;88.85
11339;BME280;5724;42.684;23.252;2022-10-30T00:39:29;95114.75;;;9.00;89.94
11339;BME280;5724;42.684;23.252;2022-10-30T00:41:54;95107.59;;;8.86;89.69
11339;BME280;5724;42.684;23.252;2022-10-30T00:44:48;95110.41;;;8.99;89.58
11339;BME280;5724;42.684;23.252;2022-10-30T00:49:50;95112.81;;;9.00;88.65
11339;BME280;5724;42.684;23.252;2022-10-30T00:52:17;95121.44;;;9.02;88.66
11339;BME280;5724;42.684;23.252;2022-10-30T00:54:44;95114.03;;;8.82;89.48
11339;BME280;5724;42.684;23.252;2022-10-30T00:57:09;95115.41;;;8.58;90.96
11339;BME280;5724;42.684;23.252;2022-10-30T00:59:35;95111.84;;;8.67;90.62
11339;BME280;5724;42.684;23.252;2022-10-30T01:02:03;95111.34;;;8.73;90.38
11339;BME280;5724;42.684;23.252;2022-10-30T01:04:30;95108.44;;;8.78;89.82
11339;BME280;5724;42.684;23.252;2022-10-30T01:06:57;95103.69;;;8.67;90.40
11339;BME280;5724;42.684;23.252;2022-10-30T01:09:24;95103.88;;;8.62;90.94
11339;BME280;5724;42.684;23.252;2022-10-30T01:11:49;95096.63;;;8.66;90.72
11339;BME280;5724;42.684;23.252;2022-10-30T01:14:17;95088.34;;;8.62;90.38
11339;BME280;5724;42.684;23.252;2022-10-30T01:16:59;95090.56;;;8.69;90.48
11339;BME280;5724;42.684;23.252;2022-10-30T01:28:09;95079.19;;;8.58;90.43
11339;BME280;5724;42.684;23.252;2022-10-30T01:36:18;95075.69;;;8.57;91.15
11339;BME280;5724;42.684;23.252;2022-10-30T01:38:51;95073.50;;;8.51;91.91
11339;BME280;5724;42.684;23.252;2022-10-30T01:41:18;95073.31;;;8.47;92.05
11339;BME280;5724;42.684;23.252;2022-10-30T01:43:45;95035.31;;;8.21;92.32
11339;BME280;5724;42.684;23.252;2022-10-30T02:00:06;95074.63;;;7.77;96.27
11339;BME280;5724;42.684;23.252;2022-10-30T02:02:32;95068.53;;;7.80;96.97
11339;BME280;5724;42.684;23.252;2022-10-30T02:04:58;95066.81;;;7.67;98.33
11339;BME280;5724;42.684;23.252;2022-10-30T02:07:24;95071.94;;;7.51;99.64
11339;BME280;5724;42.684;23.252;2022-10-30T02:09:51;95063.97;;;7.37;99.99
11339;BME280;5724;42.684;23.252;2022-10-30T02:12:17;95058.22;;;7.30;100.00
11339;BME280;5724;42.684;23.252;2022-10-30T02:14:46;95053.56;;;7.31;99.97
11339;BME280;5724;42.684;23.252;2022-10-30T02:17:12;95065.88;;;7.37;100.00
11339;BME280;5724;42.684;23.252;2022-10-30T02:19:38;95056.47;;;7.34;100.00
11339;BME280;5724;42.684;23.252;2022-10-30T02:22:04;95061.91;;;7.34;100.00
11339;BME280;5724;42.684;23.252;2022-10-30T02:24:30;95056.94;;;7.36;100.00
11339;BME280;5724;42.684;23.252;2022-10-30T02:26:56;95052.94;;;7.34;100.00
11339;BME280;5724;42.684;23.252;2022-10-30T02:29:22;95056.28;;;7.39;99.89
11339;BME280;5724;42.684;23.252;2022-10-30T02:31:48;95046.69;;;7.33;100.00
11339;BME280;5724;42.684;23.252;2022-10-30T02:34:14;95049.09;;;7.43;100.00
11339;BME280;5724;42.684;23.252;2022-10-30T02:36:39;95047.97;;;7.44;100.00
11339;BME280;5724;42.684;23.252;2022-10-30T02:39:06;95044.94;;;7.46;100.00
11339;BME280;5724;42.684;23.252;2022-10-30T02:41:31;95051.97;;;7.56;100.00
11339;BME280;5724;42.684;23.252;2022-10-30T02:43:57;95047.47;;;7.60;100.00
11339;BME280;5724;42.684;23.252;2022-10-30T02:46:22;95047.31;;;7.65;99.77
11339;BME280;5724;42.684;23.252;2022-10-30T02:48:48;95056.88;;;7.71;99.57
11339;BME280;5724;42.684;23.252;2022-10-30T02:51:26;95054.16;;;7.71;99.56
11339;BME280;5724;42.684;23.252;2022-10-30T02:53:51;95055.75;;;7.72;99.23
11339;BME280;5724;42.684;23.252;2022-10-30T02:56:16;95054.00;;;7.76;99.45
11339;BME280;5724;42.684;23.252;2022-10-30T02:58:42;95063.09;;;7.80;98.44
11339;BME280;5724;42.684;23.252;2022-10-30T03:01:16;95063.09;;;7.80;98.82
11339;BME280;5724;42.684;23.252;2022-10-30T03:03:42;95061.97;;;7.81;98.76
11339;BME280;5724;42.684;23.252;2022-10-30T03:06:09;95067.72;;;7.88;99.22
11339;BME280;5724;42.684;23.252;2022-10-30T03:08:35;95060.72;;;7.79;99.45
11339;BME280;5724;42.684;23.252;2022-10-30T03:11:03;95063.91;;;7.81;99.50
11339;BME280;5724;42.684;23.252;2022-10-30T03:13:30;95063.91;;;7.72;100.00
11339;BME280;5724;42.684;23.252;2022-10-30T03:16:03;95066.00;;;7.84;100.00
11339;BME280;5724;42.684;23.252;2022-10-30T03:18:30;95071.09;;;7.85;99.08
11339;BME280;5724;42.684;23.252;2022-10-30T03:20:59;95075.75;;;7.93;98.38
11339;BME280;5724;42.684;23.252;2022-10-30T03:23:26;95077.47;;;7.89;98.07
11339;BME280;5724;42.684;23.252;2022-10-30T03:25:53;95079.75;;;7.79;96.88
11339;BME280;5724;42.684;23.252;2022-10-30T03:28:23;95079.63;;;7.66;97.41
11339;BME280;5724;42.684;23.252;2022-10-30T03:30:49;95077.50;;;7.72;96.51
11339;BME280;5724;42.684;23.252;2022-10-30T03:33:15;95067.94;;;7.66;96.32
11339;BME280;5724;42.684;23.252;2022-10-30T03:35:44;95071.31;;;7.63;95.94
11339;BME280;5724;42.684;23.252;2022-10-30T03:38:11;95074.50;;;7.65;96.62
11339;BME280;5724;42.684;23.252;2022-10-30T03:40:37;95074.03;;;7.63;96.64
11339;BME280;5724;42.684;23.252;2022-10-30T03:43:02;95080.09;;;7.60;96.99
11339;BME280;5724;42.684;23.252;2022-10-30T03:45:28;95074.97;;;7.58;97.98
11339;BME280;5724;42.684;23.252;2022-10-30T03:47:53;95065.09;;;7.54;97.95
11339;BME280;5724;42.684;23.252;2022-10-30T03:50:19;95067.16;;;7.65;98.00
11339;BME280;5724;42.684;23.252;2022-10-30T03:52:44;95064.75;;;7.64;98.06
11339;BME280;5724;42.684;23.252;2022-10-30T03:55:09;95067.94;;;7.66;98.42
11339;BME280;5724;42.684;23.252;2022-10-30T03:57:36;95067.75;;;7.62;97.90
11339;BME280;5724;42.684;23.252;2022-10-30T04:00:02;95062.19;;;7.59;97.66
11339;BME280;5724;42.684;23.252;2022-10-30T04:02:28;95066.16;;;7.61;97.36
11339;BME280;5724;42.684;23.252;2022-10-30T04:04:53;95057.53;;;7.59;97.52
11339;BME280;5724;42.684;23.252;2022-10-30T04:07:19;95049.88;;;7.53;97.46
11339;BME280;5724;42.684;23.252;2022-10-30T04:09:44;95045.41;;;7.48;97.36
11339;BME280;5724;42.684;23.252;2022-10-30T04:12:10;95047.13;;;7.61;97.02
11339;BME280;5724;42.684;23.252;2022-10-30T04:14:35;95038.03;;;7.49;97.62
11339;BME280;5724;42.684;23.252;2022-10-30T04:17:00;95057.88;;;7.58;97.85
11339;BME280;5724;42.684;23.252;2022-10-30T04:19:26;95056.59;;;7.55;97.82
11339;BME280;5724;42.684;23.252;2022-10-30T04:21:51;95053.69;;;7.60;97.58
11339;BME280;5724;42.684;23.252;2022-10-30T04:24:17;95050.19;;;7.60;97.43
11339;BME280;5724;42.684;23.252;2022-10-30T04:26:43;95050.84;;;7.48;97.53
11339;BME280;5724;42.684;23.252;2022-10-30T04:29:09;95047.47;;;7.42;97.44
11339;BME280;5724;42.684;23.252;2022-10-30T04:31:34;95047.84;;;7.15;98.14
11339;BME280;5724;42.684;23.252;2022-10-30T04:34:00;95050.22;;;7.08;98.37
11339;BME280;5724;42.684;23.252;2022-10-30T04:36:25;95050.38;;;7.11;97.80
11339;BME280;5724;42.684;23.252;2022-10-30T04:39:00;95056.28;;;7.22;97.01
11339;BME280;5724;42.684;23.252;2022-10-30T04:41:27;95048.13;;;7.13;96.39
11339;BME280;5724;42.684;23.252;2022-10-30T04:43:52;95050.88;;;7.05;97.10
11339;BME280;5724;42.684;23.252;2022-10-30T04:46:17;95048.94;;;6.97;97.23
11339;BME280;5724;42.684;23.252;2022-10-30T04:48:43;95058.50;;;7.03;97.10
11339;BME280;5724;42.684;23.252;2022-10-30T04:51:09;95058.34;;;6.91;96.39
11339;BME280;5724;42.684;23.252;2022-10-30T04:53:36;95068.09;;;7.00;96.00
11339;BME280;5724;42.684;23.252;2022-10-30T04:56:02;95071.44;;;6.80;96.06
11339;BME280;5724;42.684;23.252;2022-10-30T04:58:27;95067.75;;;6.84;96.47
11339;BME280;5724;42.684;23.252;2022-10-30T05:00:53;95068.56;;;6.76;96.35
11339;BME280;5724;42.684;23.252;2022-10-30T05:03:21;95066.94;;;6.75;96.82
11339;BME280;5724;42.684;23.252;2022-10-30T05:05:48;95063.63;;;6.87;96.38
11339;BME280;5724;42.684;23.252;2022-10-30T05:08:19;95076.19;;;6.74;96.01
11339;BME280;5724;42.684;23.252;2022-10-30T05:10:45;95076.50;;;6.64;96.28
11339;BME280;5724;42.684;23.252;2022-10-30T05:13:10;95077.94;;;6.62;96.76
11339;BME280;5724;42.684;23.252;2022-10-30T05:15:36;95082.44;;;6.66;96.38
11339;BME280;5724;42.684;23.252;2022-10-30T05:18:02;95079.91;;;6.78;95.98
11339;BME280;5724;42.684;23.252;2022-10-30T05:20:27;95077.00;;;6.75;95.19
11339;BME280;5724;42.684;23.252;2022-10-30T05:22:57;95081.19;;;6.81;96.05
11339;BME280;5724;42.684;23.252;2022-10-30T05:25:24;95078.75;;;6.71;95.57
11339;BME280;5724;42.684;23.252;2022-10-30T05:27:50;95087.25;;;6.78;95.44
11339;BME280;5724;42.684;23.252;2022-10-30T05:30:21;95082.31;;;6.88;95.05
11339;BME280;5724;42.684;23.252;2022-10-30T05:32:46;95081.69;;;6.92;94.76
11339;BME280;5724;42.684;23.252;2022-10-30T05:35:12;95080.75;;;7.05;95.17
11339;BME280;5724;42.684;23.252;2022-10-30T05:37:37;95083.94;;;6.98;95.05
11339;BME280;5724;42.684;23.252;2022-10-30T05:40:03;95087.28;;;7.12;94.48
11339;BME280;5724;42.684;23.252;2022-10-30T05:42:29;95078.66;;;7.10;94.55
11339;BME280;5724;42.684;23.252;2022-10-30T05:44:54;95084.09;;;7.19;94.35
11339;BME280;5724;42.684;23.252;2022-10-30T05:47:19;95081.72;;;7.26;94.46
11339;BME280;5724;42.684;23.252;2022-10-30T05:49:45;95079.94;;;7.39;93.68
11339;BME280;5724;42.684;23.252;2022-10-30T05:52:10;95073.06;;;7.41;94.01
11339;BME280;5724;42.684;23.252;2022-10-30T05:54:36;95072.25;;;7.58;93.26
11339;BME280;5724;42.684;23.252;2022-10-30T05:57:01;95081.22;;;7.67;93.34
11339;BME280;5724;42.684;23.252;2022-10-30T05:59:27;95082.16;;;7.71;92.47
11339;BME280;5724;42.684;23.252;2022-10-30T06:01:52;95076.34;;;7.90;91.60
11339;BME280;5724;42.684;23.252;2022-10-30T06:04:17;95080.72;;;7.91;91.66
11339;BME280;5724;42.684;23.252;2022-10-30T06:06:43;95076.69;;;7.80;91.47
11339;BME280;5724;42.684;23.252;2022-10-30T06:09:08;95070.09;;;7.98;91.17
11339;BME280;5724;42.684;23.252;2022-10-30T06:11:34;95078.56;;;8.06;90.91
11339;BME280;5724;42.684;23.252;2022-10-30T06:13:59;95077.22;;;8.29;90.12
11339;BME280;5724;42.684;23.252;2022-10-30T06:16:25;95084.59;;;8.37;89.93
11339;BME280;5724;42.684;23.252;2022-10-30T06:18:50;95082.47;;;8.51;89.09
11339;BME280;5724;42.684;23.252;2022-10-30T06:21:16;95077.81;;;8.52;88.57
11339;BME280;5724;42.684;23.252;2022-10-30T06:23:42;95081.72;;;8.72;87.89
11339;BME280;5724;42.684;23.252;2022-10-30T06:26:07;95080.88;;;8.80;88.23
11339;BME280;5724;42.684;23.252;2022-10-30T06:28:33;95089.41;;;8.99;87.53
11339;BME280;5724;42.684;23.252;2022-10-30T06:30:59;95085.28;;;9.14;86.64
11339;BME280;5724;42.684;23.252;2022-10-30T06:33:24;95097.50;;;9.37;85.98
11339;BME280;5724;42.684;23.252;2022-10-30T06:35:50;95092.44;;;9.48;85.67
11339;BME280;5724;42.684;23.252;2022-10-30T06:38:15;95092.69;;;9.55;85.18
11339;BME280;5724;42.684;23.252;2022-10-30T06:40:41;95094.28;;;9.77;84.50
11339;BME280;5724;42.684;23.252;2022-10-30T06:43:08;95087.16;;;9.85;82.90
11339;BME280;5724;42.684;23.252;2022-10-30T06:45:33;95095.94;;;9.69;83.38
11339;BME280;5724;42.684;23.252;2022-10-30T06:47:59;95095.78;;;9.87;82.79
11339;BME280;5724;42.684;23.252;2022-10-30T06:50:25;95096.88;;;10.07;82.43
11339;BME280;5724;42.684;23.252;2022-10-30T06:52:51;95104.38;;;10.10;82.29
11339;BME280;5724;42.684;23.252;2022-10-30T06:55:19;95102.56;;;9.81;82.20
11339;BME280;5724;42.684;23.252;2022-10-30T06:57:44;95108.66;;;9.65;83.88
11339;BME280;5724;42.684;23.252;2022-10-30T07:00:10;95103.91;;;9.74;83.92
11339;BME280;5724;42.684;23.252;2022-10-30T07:02:36;95097.00;;;10.10;82.88
11339;BME280;5724;42.684;23.252;2022-10-30T07:05:01;95084.38;;;10.18;82.40
11339;BME280;5724;42.684;23.252;2022-10-30T07:07:27;95103.72;;;10.46;81.59
11339;BME280;5724;42.684;23.252;2022-10-30T07:09:53;95113.19;;;10.73;81.23
11339;BME280;5724;42.684;23.252;2022-10-30T07:12:18;95107.84;;;10.88;80.70
11339;BME280;5724;42.684;23.252;2022-10-30T07:14:44;95086.78;;;11.01;80.33
11339;BME280;5724;42.684;23.252;2022-10-30T07:17:09;95091.84;;;11.27;79.27
11339;BME280;5724;42.684;23.252;2022-10-30T07:19:35;95088.44;;;11.30;79.43
11339;BME280;5724;42.684;23.252;2022-10-30T07:22:01;95085.41;;;11.60;78.50
11339;BME280;5724;42.684;23.252;2022-10-30T07:24:26;95092.69;;;11.68;77.97
11339;BME280;5724;42.684;23.252;2022-10-30T07:26:55;95085.44;;;11.75;77.40
11339;BME280;5724;42.684;23.252;2022-10-30T07:29:20;95083.69;;;11.95;77.47
11339;BME280;5724;42.684;23.252;2022-10-30T07:31:46;95086.63;;;12.02;76.72
11339;BME280;5724;42.684;23.252;2022-10-30T07:34:12;95077.66;;;12.18;75.60
11339;BME280;5724;42.684;23.252;2022-10-30T07:36:37;95044.00;;;12.17;74.74
11339;BME280;5724;42.684;23.252;2022-10-30T07:39:03;95075.75;;;11.90;75.21
11339;BME280;5724;42.684;23.252;2022-10-30T07:41:28;95072.50;;;12.00;75.84
11339;BME280;5724;42.684;23.252;2022-10-30T07:43:53;95077.16;;;12.28;75.34
11339;BME280;5724;42.684;23.252;2022-10-30T07:46:19;95074.69;;;12.54;74.95
11339;BME280;5724;42.684;23.252;2022-10-30T07:48:44;95080.28;;;12.58;74.99
11339;BME280;5724;42.684;23.252;2022-10-30T07:51:09;95075.78;;;12.66;74.76
11339;BME280;5724;42.684;23.252;2022-10-30T07:53:35;95077.94;;;12.44;74.38
11339;BME280;5724;42.684;23.252;2022-10-30T07:56:00;95066.47;;;12.70;74.09
11339;BME280;5724;42.684;23.252;2022-10-30T07:58:26;95065.56;;;12.98;73.69
11339;BME280;5724;42.684;23.252;2022-10-30T08:00:51;95066.34;;;12.98;73.48
11339;BME280;5724;42.684;23.252;2022-10-30T08:03:17;95060.94;;;13.17;73.32
11339;BME280;5724;42.684;23.252;2022-10-30T08:05:42;95051.91;;;13.33;72.39
11339;BME280;5724;42.684;23.252;2022-10-30T08:08:07;95054.56;;;13.49;71.66
11339;BME280;5724;42.684;23.252;2022-10-30T08:10:34;95044.38;;;13.49;72.18
11339;BME280;5724;42.684;23.252;2022-10-30T08:12:59;95047.66;;;13.74;71.44
11339;BME280;5724;42.684;23.252;2022-10-30T08:15:25;95045.78;;;13.78;70.78
11339;BME280;5724;42.684;23.252;2022-10-30T08:17:51;95047.03;;;13.81;70.17
11339;BME280;5724;42.684;23.252;2022-10-30T08:20:19;95038.00;;;13.61;70.58
11339;BME280;5724;42.684;23.252;2022-10-30T08:25:10;95049.03;;;13.64;71.28
11339;BME280;5724;42.684;23.252;2022-10-30T08:27:35;95051.41;;;13.66;71.61
11339;BME280;5724;42.684;23.252;2022-10-30T08:30:01;95047.81;;;13.62;71.41
11339;BME280;5724;42.684;23.252;2022-10-30T08:32:26;95045.84;;;13.43;71.95
11339;BME280;5724;42.684;23.252;2022-10-30T08:34:52;95045.28;;;13.53;72.38
11339;BME280;5724;42.684;23.252;2022-10-30T08:37:17;95048.03;;;13.72;71.84
11339;BME280;5724;42.684;23.252;2022-10-30T08:39:43;95045.25;;;14.11;70.32
11339;BME280;5724;42.684;23.252;2022-10-30T08:42:08;95045.81;;;14.20;69.84
11339;BME280;5724;42.684;23.252;2022-10-30T08:44:33;95051.00;;;14.25;69.60
11339;BME280;5724;42.684;23.252;2022-10-30T08:46:59;95046.47;;;14.56;69.04
11339;BME280;5724;42.684;23.252;2022-10-30T08:49:24;95049.50;;;14.74;68.19
11339;BME280;5724;42.684;23.252;2022-10-30T08:51:50;95045.09;;;14.92;67.31
11339;BME280;5724;42.684;23.252;2022-10-30T08:54:15;95047.28;;;15.06;67.25
11339;BME280;5724;42.684;23.252;2022-10-30T08:56:40;95036.25;;;15.32;66.13
11339;BME280;5724;42.684;23.252;2022-10-30T08:59:06;95034.13;;;15.49;65.36
11339;BME280;5724;42.684;23.252;2022-10-30T09:01:31;95036.59;;;15.57;65.43
11339;BME280;5724;42.684;23.252;2022-10-30T09:03:57;95034.25;;;15.59;64.32
11339;BME280;5724;42.684;23.252;2022-10-30T09:06:22;95037.16;;;15.66;63.93
11339;BME280;5724;42.684;23.252;2022-10-30T09:08:47;95022.22;;;15.71;63.71
11339;BME280;5724;42.684;23.252;2022-10-30T09:11:13;95034.50;;;15.47;64.74
11339;BME280;5724;42.684;23.252;2022-10-30T09:13:38;95028.50;;;15.68;64.20
11339;BME280;5724;42.684;23.252;2022-10-30T09:16:04;95017.31;;;15.87;63.57
11339;BME280;5724;42.684;23.252;2022-10-30T09:18:30;95021.84;;;16.02;63.89
11339;BME280;5724;42.684;23.252;2022-10-30T09:20:55;95016.88;;;16.19;63.20
11339;BME280;5724;42.684;23.252;2022-10-30T09:23:21;95014.19;;;16.26;63.32
11339;BME280;5724;42.684;23.252;2022-10-30T09:25:46;95017.63;;;16.16;62.26
11339;BME280;5724;42.684;23.252;2022-10-30T09:28:11;95013.06;;;15.93;62.70
11339;BME280;5724;42.684;23.252;2022-10-30T09:30:37;95017.81;;;15.96;62.96
11339;BME280;5724;42.684;23.252;2022-10-30T09:33:02;95016.50;;;16.20;63.12
11339;BME280;5724;42.684;23.252;2022-10-30T09:35:28;95014.16;;;16.63;62.28
11339;BME280;5724;42.684;23.252;2022-10-30T09:37:55;95011.16;;;16.79;61.29
11339;BME280;5724;42.684;23.252;2022-10-30T09:40:31;95007.97;;;16.77;60.89
11339;BME280;5724;42.684;23.252;2022-10-30T09:43:19;94989.13;;;16.86;60.75
11339;BME280;5724;42.684;23.252;2022-10-30T09:57:35;94978.03;;;17.37;58.90
11339;BME280;5724;42.684;23.252;2022-10-30T10:00:16;94974.97;;;17.60;58.21
11339;BME280;5724;42.684;23.252;2022-10-30T10:03:20;94972.31;;;17.78;57.69
11339;BME280;5724;42.684;23.252;2022-10-30T10:05:52;94964.47;;;18.01;56.96
11339;BME280;5724;42.684;23.252;2022-10-30T10:08:37;94969.28;;;18.26;56.42
11339;BME280;5724;42.684;23.252;2022-10-30T10:11:11;94963.38;;;18.24;55.34
11339;BME280;5724;42.684;23.252;2022-10-30T10:13:53;94954.69;;;18.43;55.45
11339;BME280;5724;42.684;23.252;2022-10-30T10:16:32;94947.16;;;18.58;54.90
11339;BME280;5724;42.684;23.252;2022-10-30T10:19:25;94945.19;;;18.62;54.03
11339;BME280;5724;42.684;23.252;2022-10-30T10:21:58;94949.56;;;18.92;53.22
11339;BME280;5724;42.684;23.252;2022-10-30T10:24:29;94943.66;;;18.75;51.43
11339;BME280;5724;42.684;23.252;2022-10-30T10:48:46;94909.22;;;18.80;50.77
11339;BME280;5724;42.684;23.252;2022-10-30T10:51:26;94902.94;;;18.65;51.16
11339;BME280;5724;42.684;23.252;2022-10-30T10:54:00;94902.09;;;18.93;50.77
11339;BME280;5724;42.684;23.252;2022-10-30T10:56:33;94899.31;;;18.90;50.17
11339;BME280;5724;42.684;23.252;2022-10-30T10:59:03;94885.81;;;19.09;50.72
11339;BME280;5724;42.684;23.252;2022-10-30T11:01:38;94886.59;;;19.10;49.66
11339;BME280;5724;42.684;23.252;2022-10-30T11:06:39;94879.06;;;19.17;49.38
11339;BME280;5724;42.684;23.252;2022-10-30T11:09:15;94868.78;;;19.18;49.22
11339;BME280;5724;42.684;23.252;2022-10-30T11:11:44;94871.41;;;19.57;48.43
11339;BME280;5724;42.684;23.252;2022-10-30T11:14:15;94869.44;;;19.61;47.01
11339;BME280;5724;42.684;23.252;2022-10-30T11:19:31;94858.50;;;19.99;46.88
11339;BME280;5724;42.684;23.252;2022-10-30T11:21:57;94854.22;;;19.91;46.15
11339;BME280;5724;42.684;23.252;2022-10-30T11:24:31;94853.63;;;20.14;45.15
11339;BME280;5724;42.684;23.252;2022-10-30T11:27:15;94852.16;;;20.02;44.94
11339;BME280;5724;42.684;23.252;2022-10-30T11:32:19;94842.09;;;20.22;45.75
11339;BME280;5724;42.684;23.252;2022-10-30T11:35:20;94830.31;;;20.08;45.49
11339;BME280;5724;42.684;23.252;2022-10-30T11:37:47;94834.78;;;20.46;44.89
11339;BME280;5724;42.684;23.252;2022-10-30T11:42:40;94835.06;;;20.59;43.13
11339;BME280;5724;42.684;23.252;2022-10-30T11:45:19;94833.75;;;20.71;43.37
11339;BME280;5724;42.684;23.252;2022-10-30T11:47:48;94834.28;;;20.55;42.07
11339;BME280;5724;42.684;23.252;2022-10-30T11:50:19;94823.75;;;20.32;42.50
11339;BME280;5724;42.684;23.252;2022-10-30T11:52:48;94833.88;;;20.05;43.13
11339;BME280;5724;42.684;23.252;2022-10-30T11:57:50;94823.91;;;20.18;43.40
11339;BME280;5724;42.684;23.252;2022-10-30T12:00:24;94825.44;;;20.22;42.57
11339;BME280;5724;42.684;23.252;2022-10-30T12:02:52;94822.56;;;20.33;42.16
11339;BME280;5724;42.684;23.252;2022-10-30T12:07:50;94818.03;;;20.95;43.34
11339;BME280;5724;42.684;23.252;2022-10-30T12:10:26;94812.81;;;21.00;43.25
11339;BME280;5724;42.684;23.252;2022-10-30T12:12:52;94819.31;;;21.21;42.90
11339;BME280;5724;42.684;23.252;2022-10-30T12:15:24;94815.13;;;21.05;43.74
11339;BME280;5724;42.684;23.252;2022-10-30T12:17:58;94814.72;;;21.07;43.27
11339;BME280;5724;42.684;23.252;2022-10-30T12:20:25;94810.56;;;20.88;43.47
11339;BME280;5724;42.684;23.252;2022-10-30T12:22:51;94800.00;;;21.10;42.74
11339;BME280;5724;42.684;23.252;2022-10-30T12:25:23;94804.16;;;21.29;42.56
11339;BME280;5724;42.684;23.252;2022-10-30T12:27:50;94809.81;;;21.52;41.99
11339;BME280;5724;42.684;23.252;2022-10-30T12:30:22;94802.13;;;21.33;40.98
11339;BME280;5724;42.684;23.252;2022-10-30T12:33:05;94795.03;;;20.94;40.41
11339;BME280;5724;42.684;23.252;2022-10-30T12:35:50;94789.53;;;21.21;40.56
11339;BME280;5724;42.684;23.252;2022-10-30T12:38:34;94793.94;;;21.49;40.15
11339;BME280;5724;42.684;23.252;2022-10-30T12:41:11;94796.34;;;21.78;40.37
11339;BME280;5724;42.684;23.252;2022-10-30T12:43:40;94790.81;;;22.01;39.10
11339;BME280;5724;42.684;23.252;2022-10-30T12:46:26;94790.19;;;21.90;38.55
11339;BME280;5724;42.684;23.252;2022-10-30T12:49:24;94792.41;;;22.02;37.74
11339;BME280;5724;42.684;23.252;2022-10-30T12:54:54;94788.69;;;21.85;38.94
11339;BME280;5724;42.684;23.252;2022-10-30T12:57:29;94777.47;;;21.89;38.32
11339;BME280;5724;42.684;23.252;2022-10-30T13:00:11;94781.81;;;22.20;38.24
11339;BME280;5724;42.684;23.252;2022-10-30T13:08:16;94776.66;;;22.42;36.93
11339;BME280;5724;42.684;23.252;2022-10-30T13:10:45;94769.00;;;22.46;37.01
11339;BME280;5724;42.684;23.252;2022-10-30T13:13:33;94764.56;;;22.72;37.00
11339;BME280;5724;42.684;23.252;2022-10-30T13:16:02;94751.06;;;22.71;35.57
11339;BME280;5724;42.684;23.252;2022-10-30T13:18:31;94761.97;;;22.62;35.60
11339;BME280;5724;42.684;23.252;2022-10-30T13:23:45;94759.34;;;22.74;34.78
11339;BME280;5724;42.684;23.252;2022-10-30T13:29:50;94755.03;;;23.13;34.91
11339;BME280;5724;42.684;23.252;2022-10-30T13:34:53;94753.84;;;23.50;34.91
11339;BME280;5724;42.684;23.252;2022-10-30T13:45:42;94762.72;;;22.19;38.12
11339;BME280;5724;42.684;23.252;2022-10-30T13:53:28;94761.44;;;21.15;40.07
11339;BME280;5724;42.684;23.252;2022-10-30T13:55:55;94772.09;;;20.86;41.15
11339;BME280;5724;42.684;23.252;2022-10-30T13:58:29;94765.78;;;20.82;40.98
11339;BME280;5724;42.684;23.252;2022-10-30T14:01:23;94763.66;;;20.60;41.16
11339;BME280;5724;42.684;23.252;2022-10-30T14:11:26;94757.69;;;20.16;42.04
11339;BME280;5724;42.684;23.252;2022-10-30T14:13:56;94768.88;;;20.09;42.12
11339;BME280;5724;42.684;23.252;2022-10-30T14:19:05;94767.06;;;19.88;42.56
11339;BME280;5724;42.684;23.252;2022-10-30T14:24:12;94758.63;;;19.43;43.91
11339;BME280;5724;42.684;23.252;2022-10-30T14:26:47;94775.75;;;19.24;44.35
11339;BME280;5724;42.684;23.252;2022-10-30T14:39:54;94765.63;;;18.89;46.51
11339;BME280;5724;42.684;23.252;2022-10-30T14:42:36;94771.16;;;18.93;46.40
11339;BME280;5724;42.684;23.252;2022-10-30T14:45:27;94774.31;;;18.91;46.74
11339;BME280;5724;42.684;23.252;2022-10-30T14:48:06;94764.13;;;18.67;46.76
11339;BME280;5724;42.684;23.252;2022-10-30T14:58:42;94775.59;;;18.51;47.99
11339;BME280;5724;42.684;23.252;2022-10-30T15:01:28;94772.44;;;18.49;48.28
11339;BME280;5724;42.684;23.252;2022-10-30T15:15:15;94769.31;;;18.33;49.26
11339;BME280;5724;42.684;23.252;2022-10-30T15:17:45;94774.50;;;18.16;49.60
11339;BME280;5724;42.684;23.252;2022-10-30T15:20:19;94766.19;;;18.09;49.95
11339;BME280;5724;42.684;23.252;2022-10-30T15:22:47;94766.22;;;18.06;50.00
11339;BME280;5724;42.684;23.252;2022-10-30T15:25:19;94771.31;;;18.14;50.21
11339;BME280;5724;42.684;23.252;2022-10-30T15:27:46;94766.59;;;18.08;50.46
11339;BME280;5724;42.684;23.252;2022-10-30T15:30:18;94770.13;;;18.05;50.66
11339;BME280;5724;42.684;23.252;2022-10-30T15:32:45;94784.38;;;17.96;51.08
11339;BME280;5724;42.684;23.252;2022-10-30T15:37:39;94779.66;;;17.86;51.60
11339;BME280;5724;42.684;23.252;2022-10-30T15:40:19;94778.84;;;17.82;51.94
11339;BME280;5724;42.684;23.252;2022-10-30T15:42:48;94780.38;;;17.68;52.33
11339;BME280;5724;42.684;23.252;2022-10-30T15:45:17;94778.03;;;17.74;52.29
11339;BME280;5724;42.684;23.252;2022-10-30T15:47:56;94767.34;;;17.65;52.36
11339;BME280;5724;42.684;23.252;2022-10-30T15:50:22;94780.38;;;17.68;52.37